sensor_id;sensor_type;location;lat;lon;timestamp;pressure;altitude;pressure_sealevel;temperature;humidity
10732;BME280;5417;42.686;23.244;2023-05-29T00:00:47;94082.25;;;15.56;78.99
10732;BME280;5417;42.686;23.244;2023-05-29T00:12:58;94087.50;;;15.48;79.75
10732;BME280;5417;42.686;23.244;2023-05-29T00:15:37;94082.41;;;15.46;79.31
10732;BME280;5417;42.686;23.244;2023-05-29T00:18:22;94084.38;;;15.44;79.60
10732;BME280;5417;42.686;23.244;2023-05-29T00:20:51;94084.72;;;15.41;79.47
10732;BME280;5417;42.686;23.244;2023-05-29T00:23:21;94086.50;;;15.41;79.70
10732;BME280;5417;42.686;23.244;2023-05-29T00:26:45;94084.88;;;15.40;79.63
10732;BME280;5417;42.686;23.244;2023-05-29T00:32:34;94085.19;;;15.37;79.97
10732;BME280;5417;42.686;23.244;2023-05-29T00:42:19;94083.91;;;15.49;80.08
10732;BME280;5417;42.686;23.244;2023-05-29T00:44:48;94081.28;;;15.49;80.92
10732;BME280;5417;42.686;23.244;2023-05-29T00:47:38;94077.50;;;15.52;80.69
10732;BME280;5417;42.686;23.244;2023-05-29T00:54:07;94082.78;;;15.60;80.19
10732;BME280;5417;42.686;23.244;2023-05-29T00:56:52;94071.47;;;15.59;80.68
10732;BME280;5417;42.686;23.244;2023-05-29T01:27:05;94083.53;;;15.28;80.59
10732;BME280;5417;42.686;23.244;2023-05-29T01:29:58;94087.16;;;15.27;80.68
10732;BME280;5417;42.686;23.244;2023-05-29T01:38:40;94087.63;;;15.22;81.02
10732;BME280;5417;42.686;23.244;2023-05-29T01:41:09;94064.03;;;15.14;81.11
10732;BME280;5417;42.686;23.244;2023-05-29T01:43:56;94076.16;;;15.23;80.92
10732;BME280;5417;42.686;23.244;2023-05-29T01:46:59;94077.81;;;15.24;81.08
10732;BME280;5417;42.686;23.244;2023-05-29T01:49:30;94085.34;;;15.27;80.98
10732;BME280;5417;42.686;23.244;2023-05-29T02:11:10;94072.75;;;15.39;82.73
10732;BME280;5417;42.686;23.244;2023-05-29T02:14:00;94062.41;;;15.37;82.30
10732;BME280;5417;42.686;23.244;2023-05-29T02:16:28;94060.78;;;15.44;82.20
10732;BME280;5417;42.686;23.244;2023-05-29T02:19:21;94058.97;;;15.45;82.69
10732;BME280;5417;42.686;23.244;2023-05-29T02:21:52;94058.81;;;15.46;83.30
10732;BME280;5417;42.686;23.244;2023-05-29T02:24:19;94054.38;;;15.47;83.20
10732;BME280;5417;42.686;23.244;2023-05-29T02:27:06;94057.84;;;15.47;83.05
10732;BME280;5417;42.686;23.244;2023-05-29T02:33:15;94053.91;;;15.43;83.37
10732;BME280;5417;42.686;23.244;2023-05-29T02:35:49;94068.97;;;15.41;82.88
10732;BME280;5417;42.686;23.244;2023-05-29T02:38:17;94066.69;;;15.38;82.79
10732;BME280;5417;42.686;23.244;2023-05-29T02:41:36;94069.47;;;15.37;83.02
10732;BME280;5417;42.686;23.244;2023-05-29T02:43:56;94073.41;;;15.33;82.65
10732;BME280;5417;42.686;23.244;2023-05-29T02:47:09;94077.97;;;15.31;82.87
10732;BME280;5417;42.686;23.244;2023-05-29T02:49:26;94061.75;;;15.27;82.90
10732;BME280;5417;42.686;23.244;2023-05-29T02:52:10;94058.78;;;15.22;82.78
10732;BME280;5417;42.686;23.244;2023-05-29T02:54:55;94061.25;;;15.24;82.59
10732;BME280;5417;42.686;23.244;2023-05-29T03:00:54;94070.59;;;15.18;82.34
10732;BME280;5417;42.686;23.244;2023-05-29T03:03:24;94061.91;;;15.18;82.71
10732;BME280;5417;42.686;23.244;2023-05-29T03:05:54;94069.59;;;15.19;82.61
10732;BME280;5417;42.686;23.244;2023-05-29T03:08:28;94069.59;;;15.19;83.14
10732;BME280;5417;42.686;23.244;2023-05-29T03:14:56;94071.41;;;15.19;83.61
10732;BME280;5417;42.686;23.244;2023-05-29T03:17:14;94073.88;;;15.20;83.29
10732;BME280;5417;42.686;23.244;2023-05-29T03:20:08;94045.63;;;15.06;83.46
10732;BME280;5417;42.686;23.244;2023-05-29T03:35:45;94078.00;;;15.47;82.79
10732;BME280;5417;42.686;23.244;2023-05-29T03:38:27;94075.69;;;15.52;82.73
10732;BME280;5417;42.686;23.244;2023-05-29T03:41:00;94086.53;;;15.57;82.48
10732;BME280;5417;42.686;23.244;2023-05-29T03:43:41;94089.53;;;15.62;82.20
10732;BME280;5417;42.686;23.244;2023-05-29T03:46:08;94095.28;;;15.66;81.86
10732;BME280;5417;42.686;23.244;2023-05-29T03:48:37;94093.16;;;15.69;82.02
10732;BME280;5417;42.686;23.244;2023-05-29T03:51:05;94096.44;;;15.71;82.35
10732;BME280;5417;42.686;23.244;2023-05-29T03:53:43;94100.53;;;15.74;81.58
10732;BME280;5417;42.686;23.244;2023-05-29T03:56:32;94097.41;;;15.78;81.64
10732;BME280;5417;42.686;23.244;2023-05-29T03:59:00;94098.56;;;15.76;81.00
10732;BME280;5417;42.686;23.244;2023-05-29T04:01:27;94108.06;;;15.85;80.63
10732;BME280;5417;42.686;23.244;2023-05-29T04:03:54;94109.38;;;15.89;80.17
10732;BME280;5417;42.686;23.244;2023-05-29T04:06:35;94105.44;;;15.93;80.00
10732;BME280;5417;42.686;23.244;2023-05-29T04:09:04;94116.13;;;16.00;79.98
10732;BME280;5417;42.686;23.244;2023-05-29T04:11:32;94111.50;;;16.02;79.91
10732;BME280;5417;42.686;23.244;2023-05-29T04:14:01;94115.78;;;16.11;80.33
10732;BME280;5417;42.686;23.244;2023-05-29T04:17:36;94119.09;;;16.13;79.80
10732;BME280;5417;42.686;23.244;2023-05-29T04:23:04;94119.06;;;16.05;78.85
10732;BME280;5417;42.686;23.244;2023-05-29T04:25:53;94123.19;;;16.24;79.75
10732;BME280;5417;42.686;23.244;2023-05-29T04:28:35;94126.78;;;16.15;79.60
10732;BME280;5417;42.686;23.244;2023-05-29T04:31:04;94125.13;;;16.05;80.10
10732;BME280;5417;42.686;23.244;2023-05-29T04:33:55;94124.97;;;15.99;80.82
10732;BME280;5417;42.686;23.244;2023-05-29T04:36:26;94124.47;;;15.95;81.46
10732;BME280;5417;42.686;23.244;2023-05-29T04:39:27;94121.53;;;15.98;81.10
10732;BME280;5417;42.686;23.244;2023-05-29T04:45:10;94126.63;;;16.16;80.61
10732;BME280;5417;42.686;23.244;2023-05-29T04:48:44;94131.72;;;16.18;79.89
10732;BME280;5417;42.686;23.244;2023-05-29T04:51:11;94121.69;;;16.29;79.79
10732;BME280;5417;42.686;23.244;2023-05-29T04:53:38;94132.50;;;16.34;80.23
10732;BME280;5417;42.686;23.244;2023-05-29T04:56:09;94135.94;;;16.43;79.25
10732;BME280;5417;42.686;23.244;2023-05-29T04:58:41;94135.13;;;16.42;79.77
10732;BME280;5417;42.686;23.244;2023-05-29T05:01:22;94138.91;;;16.40;79.90
10732;BME280;5417;42.686;23.244;2023-05-29T05:03:49;94147.94;;;16.46;80.07
10732;BME280;5417;42.686;23.244;2023-05-29T05:09:24;94156.63;;;16.46;79.54
10732;BME280;5417;42.686;23.244;2023-05-29T05:11:53;94156.78;;;16.45;79.89
10732;BME280;5417;42.686;23.244;2023-05-29T05:14:24;94164.84;;;16.51;80.12
10732;BME280;5417;42.686;23.244;2023-05-29T05:16:51;94166.97;;;16.48;80.51
10732;BME280;5417;42.686;23.244;2023-05-29T05:19:23;94164.84;;;16.43;81.50
10732;BME280;5417;42.686;23.244;2023-05-29T05:22:01;94164.84;;;16.51;81.62
10732;BME280;5417;42.686;23.244;2023-05-29T05:24:42;94173.69;;;16.58;81.74
10732;BME280;5417;42.686;23.244;2023-05-29T05:27:10;94181.22;;;16.61;81.33
10732;BME280;5417;42.686;23.244;2023-05-29T05:29:42;94161.03;;;16.62;80.64
10732;BME280;5417;42.686;23.244;2023-05-29T05:32:09;94169.41;;;16.57;80.69
10732;BME280;5417;42.686;23.244;2023-05-29T05:34:35;94171.06;;;16.58;81.50
10732;BME280;5417;42.686;23.244;2023-05-29T05:37:02;94164.66;;;16.61;80.53
10732;BME280;5417;42.686;23.244;2023-05-29T05:39:29;94167.66;;;16.66;80.52
10732;BME280;5417;42.686;23.244;2023-05-29T05:41:58;94175.84;;;16.79;80.80
10732;BME280;5417;42.686;23.244;2023-05-29T05:44:29;94178.78;;;16.84;79.93
10732;BME280;5417;42.686;23.244;2023-05-29T05:46:58;94167.28;;;16.85;79.94
10732;BME280;5417;42.686;23.244;2023-05-29T05:49:26;94177.59;;;16.95;79.60
10732;BME280;5417;42.686;23.244;2023-05-29T05:51:53;94175.09;;;17.01;79.10
10732;BME280;5417;42.686;23.244;2023-05-29T05:54:20;94170.56;;;16.87;79.66
10732;BME280;5417;42.686;23.244;2023-05-29T05:56:49;94178.59;;;16.86;79.99
10732;BME280;5417;42.686;23.244;2023-05-29T05:59:15;94187.81;;;16.90;80.82
10732;BME280;5417;42.686;23.244;2023-05-29T06:01:44;94180.91;;;16.89;81.52
10732;BME280;5417;42.686;23.244;2023-05-29T06:04:10;94177.13;;;16.83;81.49
10732;BME280;5417;42.686;23.244;2023-05-29T06:06:37;94180.91;;;16.89;81.31
10732;BME280;5417;42.686;23.244;2023-05-29T06:09:04;94167.25;;;16.93;81.28
10732;BME280;5417;42.686;23.244;2023-05-29T06:11:33;94168.22;;;17.00;80.45
10732;BME280;5417;42.686;23.244;2023-05-29T06:14:00;94174.75;;;17.13;80.16
10732;BME280;5417;42.686;23.244;2023-05-29T06:16:33;94177.47;;;17.35;79.78
10732;BME280;5417;42.686;23.244;2023-05-29T06:19:01;94178.41;;;17.43;78.09
10732;BME280;5417;42.686;23.244;2023-05-29T06:21:30;94188.16;;;17.34;78.23
10732;BME280;5417;42.686;23.244;2023-05-29T06:24:01;94180.09;;;17.35;78.10
10732;BME280;5417;42.686;23.244;2023-05-29T06:26:28;94189.78;;;17.35;77.44
10732;BME280;5417;42.686;23.244;2023-05-29T06:28:55;94191.50;;;17.20;77.29
10732;BME280;5417;42.686;23.244;2023-05-29T06:31:22;94192.97;;;17.22;77.67
10732;BME280;5417;42.686;23.244;2023-05-29T06:33:49;94188.41;;;17.08;78.30
10732;BME280;5417;42.686;23.244;2023-05-29T06:36:17;94185.78;;;17.08;78.33
10732;BME280;5417;42.686;23.244;2023-05-29T06:38:56;94190.66;;;17.27;78.64
10732;BME280;5417;42.686;23.244;2023-05-29T06:41:22;94184.81;;;17.48;78.13
10732;BME280;5417;42.686;23.244;2023-05-29T06:43:50;94187.22;;;17.58;76.42
10732;BME280;5417;42.686;23.244;2023-05-29T06:46:17;94169.91;;;17.63;76.32
10732;BME280;5417;42.686;23.244;2023-05-29T06:48:44;94191.66;;;17.96;75.77
10732;BME280;5417;42.686;23.244;2023-05-29T06:51:17;94181.13;;;17.96;73.85
10732;BME280;5417;42.686;23.244;2023-05-29T06:53:49;94194.75;;;18.00;74.13
10732;BME280;5417;42.686;23.244;2023-05-29T06:56:22;94180.59;;;18.01;74.04
10732;BME280;5417;42.686;23.244;2023-05-29T06:58:49;94182.50;;;18.07;74.35
10732;BME280;5417;42.686;23.244;2023-05-29T07:01:16;94184.75;;;17.95;74.25
10732;BME280;5417;42.686;23.244;2023-05-29T07:03:45;94189.88;;;17.89;74.87
10732;BME280;5417;42.686;23.244;2023-05-29T07:06:18;94183.44;;;17.91;75.30
10732;BME280;5417;42.686;23.244;2023-05-29T07:08:47;94185.44;;;17.89;75.15
10732;BME280;5417;42.686;23.244;2023-05-29T07:11:17;94181.63;;;17.92;75.55
10732;BME280;5417;42.686;23.244;2023-05-29T07:13:44;94192.88;;;17.86;76.25
10732;BME280;5417;42.686;23.244;2023-05-29T07:16:12;94183.97;;;17.87;75.92
10732;BME280;5417;42.686;23.244;2023-05-29T07:18:39;94183.28;;;17.93;76.29
10732;BME280;5417;42.686;23.244;2023-05-29T07:21:07;94183.44;;;17.91;75.44
10732;BME280;5417;42.686;23.244;2023-05-29T07:23:35;94195.28;;;17.95;75.71
10732;BME280;5417;42.686;23.244;2023-05-29T07:26:03;94182.97;;;18.11;76.17
10732;BME280;5417;42.686;23.244;2023-05-29T07:28:30;94182.34;;;18.09;75.62
10732;BME280;5417;42.686;23.244;2023-05-29T07:30:57;94183.63;;;18.13;74.49
10732;BME280;5417;42.686;23.244;2023-05-29T07:33:26;94182.41;;;18.01;73.50
10732;BME280;5417;42.686;23.244;2023-05-29T07:35:54;94192.69;;;18.10;72.76
10732;BME280;5417;42.686;23.244;2023-05-29T07:38:21;94179.81;;;18.15;72.96
10732;BME280;5417;42.686;23.244;2023-05-29T07:40:48;94177.66;;;18.19;72.62
10732;BME280;5417;42.686;23.244;2023-05-29T07:43:16;94179.72;;;18.32;72.83
10732;BME280;5417;42.686;23.244;2023-05-29T07:45:43;94176.75;;;18.49;72.69
10732;BME280;5417;42.686;23.244;2023-05-29T07:48:11;94174.34;;;18.63;71.93
10732;BME280;5417;42.686;23.244;2023-05-29T07:50:38;94180.91;;;18.67;71.17
10732;BME280;5417;42.686;23.244;2023-05-29T07:53:06;94183.25;;;18.62;71.92
10732;BME280;5417;42.686;23.244;2023-05-29T07:55:37;94178.22;;;18.52;71.96
10732;BME280;5417;42.686;23.244;2023-05-29T07:58:11;94183.31;;;18.53;72.66
10732;BME280;5417;42.686;23.244;2023-05-29T08:00:39;94177.03;;;18.54;72.11
10732;BME280;5417;42.686;23.244;2023-05-29T08:03:16;94174.38;;;18.40;72.23
10732;BME280;5417;42.686;23.244;2023-05-29T08:05:50;94170.91;;;18.39;72.44
10732;BME280;5417;42.686;23.244;2023-05-29T08:08:17;94174.63;;;18.68;73.49
10732;BME280;5417;42.686;23.244;2023-05-29T08:10:45;94172.78;;;19.20;74.33
10732;BME280;5417;42.686;23.244;2023-05-29T08:13:11;94176.41;;;19.64;66.49
10732;BME280;5417;42.686;23.244;2023-05-29T08:15:39;94177.28;;;20.07;64.43
10732;BME280;5417;42.686;23.244;2023-05-29T08:18:06;94165.31;;;20.47;62.50
10732;BME280;5417;42.686;23.244;2023-05-29T08:20:37;94169.44;;;20.56;61.69
10732;BME280;5417;42.686;23.244;2023-05-29T08:23:03;94171.47;;;20.54;61.90
10732;BME280;5417;42.686;23.244;2023-05-29T08:25:38;94172.44;;;20.46;62.05
10732;BME280;5417;42.686;23.244;2023-05-29T08:28:05;94172.19;;;20.41;62.42
10732;BME280;5417;42.686;23.244;2023-05-29T08:30:32;94178.88;;;20.23;63.24
10732;BME280;5417;42.686;23.244;2023-05-29T08:33:00;94191.13;;;20.09;63.54
10732;BME280;5417;42.686;23.244;2023-05-29T08:35:27;94186.03;;;20.07;64.63
10732;BME280;5417;42.686;23.244;2023-05-29T08:37:54;94192.22;;;20.14;64.96
10732;BME280;5417;42.686;23.244;2023-05-29T08:40:22;94169.19;;;20.30;64.01
10732;BME280;5417;42.686;23.244;2023-05-29T08:42:56;94178.78;;;20.31;63.02
10732;BME280;5417;42.686;23.244;2023-05-29T08:45:29;94169.84;;;20.32;62.19
10732;BME280;5417;42.686;23.244;2023-05-29T08:48:02;94175.44;;;20.43;62.53
10732;BME280;5417;42.686;23.244;2023-05-29T08:50:29;94177.28;;;20.43;61.47
10732;BME280;5417;42.686;23.244;2023-05-29T08:52:56;94162.53;;;20.55;62.00
10732;BME280;5417;42.686;23.244;2023-05-29T08:55:26;94162.00;;;20.66;61.89
10732;BME280;5417;42.686;23.244;2023-05-29T08:57:52;94156.31;;;20.69;61.43
10732;BME280;5417;42.686;23.244;2023-05-29T09:00:20;94160.81;;;20.69;61.48
10732;BME280;5417;42.686;23.244;2023-05-29T09:02:47;94161.44;;;20.71;60.54
10732;BME280;5417;42.686;23.244;2023-05-29T09:05:16;94162.19;;;20.65;58.85
10732;BME280;5417;42.686;23.244;2023-05-29T09:07:45;94148.81;;;20.73;59.60
10732;BME280;5417;42.686;23.244;2023-05-29T09:10:12;94155.09;;;20.93;61.34
10732;BME280;5417;42.686;23.244;2023-05-29T09:12:41;94140.88;;;21.01;60.91
10732;BME280;5417;42.686;23.244;2023-05-29T09:15:16;94145.91;;;20.89;57.85
10732;BME280;5417;42.686;23.244;2023-05-29T09:17:49;94144.75;;;20.70;58.61
10732;BME280;5417;42.686;23.244;2023-05-29T09:20:18;94144.41;;;20.80;58.71
10732;BME280;5417;42.686;23.244;2023-05-29T09:22:59;94137.41;;;21.00;57.28
10732;BME280;5417;42.686;23.244;2023-05-29T09:25:51;94146.63;;;21.11;56.63
10732;BME280;5417;42.686;23.244;2023-05-29T09:28:22;94142.00;;;21.20;54.56
10732;BME280;5417;42.686;23.244;2023-05-29T09:30:52;94133.97;;;21.34;53.20
10732;BME280;5417;42.686;23.244;2023-05-29T09:33:19;94129.19;;;21.64;52.97
10732;BME280;5417;42.686;23.244;2023-05-29T09:35:59;94121.06;;;21.72;52.20
10732;BME280;5417;42.686;23.244;2023-05-29T09:38:30;94117.00;;;21.70;55.26
10732;BME280;5417;42.686;23.244;2023-05-29T09:41:03;94117.81;;;21.70;55.39
10732;BME280;5417;42.686;23.244;2023-05-29T09:43:37;94116.34;;;21.55;54.22
10732;BME280;5417;42.686;23.244;2023-05-29T09:46:19;94117.53;;;21.46;54.02
10732;BME280;5417;42.686;23.244;2023-05-29T09:48:46;94118.25;;;21.33;54.54
10732;BME280;5417;42.686;23.244;2023-05-29T09:51:20;94110.78;;;21.43;55.24
10732;BME280;5417;42.686;23.244;2023-05-29T09:53:48;94108.59;;;21.60;53.95
10732;BME280;5417;42.686;23.244;2023-05-29T09:56:16;94106.13;;;21.45;53.31
10732;BME280;5417;42.686;23.244;2023-05-29T09:58:52;94113.06;;;21.46;53.10
10732;BME280;5417;42.686;23.244;2023-05-29T10:01:25;94105.53;;;21.56;53.76
10732;BME280;5417;42.686;23.244;2023-05-29T10:04:07;94106.34;;;21.57;53.28
10732;BME280;5417;42.686;23.244;2023-05-29T10:06:38;94097.78;;;21.55;52.24
10732;BME280;5417;42.686;23.244;2023-05-29T10:09:06;94103.91;;;21.55;52.45
10732;BME280;5417;42.686;23.244;2023-05-29T10:11:47;94099.00;;;21.52;51.89
10732;BME280;5417;42.686;23.244;2023-05-29T10:14:17;94101.09;;;21.70;52.32
10732;BME280;5417;42.686;23.244;2023-05-29T10:16:46;94099.88;;;21.79;51.98
10732;BME280;5417;42.686;23.244;2023-05-29T10:19:18;94093.38;;;21.82;52.51
10732;BME280;5417;42.686;23.244;2023-05-29T10:21:52;94103.63;;;21.98;50.86
10732;BME280;5417;42.686;23.244;2023-05-29T10:24:25;94091.22;;;22.12;51.35
10732;BME280;5417;42.686;23.244;2023-05-29T10:27:06;94089.41;;;22.39;51.94
10732;BME280;5417;42.686;23.244;2023-05-29T10:29:42;94090.00;;;22.34;50.62
10732;BME280;5417;42.686;23.244;2023-05-29T10:32:20;94089.81;;;22.42;52.65
10732;BME280;5417;42.686;23.244;2023-05-29T10:35:05;94088.78;;;22.30;50.40
10732;BME280;5417;42.686;23.244;2023-05-29T10:37:40;94080.00;;;22.23;50.35
10732;BME280;5417;42.686;23.244;2023-05-29T10:40:22;94075.13;;;22.13;49.51
10732;BME280;5417;42.686;23.244;2023-05-29T10:42:51;94082.25;;;22.13;50.07
10732;BME280;5417;42.686;23.244;2023-05-29T10:48:49;94077.16;;;22.18;48.87
10732;BME280;5417;42.686;23.244;2023-05-29T10:51:29;94078.38;;;22.09;46.99
10732;BME280;5417;42.686;23.244;2023-05-29T10:54:07;94077.75;;;22.20;47.12
10732;BME280;5417;42.686;23.244;2023-05-29T10:56:34;94062.25;;;22.30;47.44
10732;BME280;5417;42.686;23.244;2023-05-29T10:59:24;94054.50;;;22.55;47.77
10732;BME280;5417;42.686;23.244;2023-05-29T11:01:54;94048.75;;;22.71;46.15
10732;BME280;5417;42.686;23.244;2023-05-29T11:04:27;94042.03;;;22.75;44.95
10732;BME280;5417;42.686;23.244;2023-05-29T11:06:55;94050.63;;;22.51;45.02
10732;BME280;5417;42.686;23.244;2023-05-29T11:09:31;94050.84;;;22.49;44.97
10732;BME280;5417;42.686;23.244;2023-05-29T11:12:17;94051.03;;;22.34;45.89
10732;BME280;5417;42.686;23.244;2023-05-29T11:15:02;94046.16;;;22.31;46.32
10732;BME280;5417;42.686;23.244;2023-05-29T11:17:30;94041.25;;;22.15;47.08
10732;BME280;5417;42.686;23.244;2023-05-29T11:20:05;94041.88;;;22.30;47.78
10732;BME280;5417;42.686;23.244;2023-05-29T11:22:53;94037.00;;;22.41;48.41
10732;BME280;5417;42.686;23.244;2023-05-29T11:25:25;94044.75;;;22.42;47.05
10732;BME280;5417;42.686;23.244;2023-05-29T11:27:54;94031.44;;;22.55;48.23
10732;BME280;5417;42.686;23.244;2023-05-29T11:30:26;94032.84;;;22.64;47.46
10732;BME280;5417;42.686;23.244;2023-05-29T11:32:53;94037.53;;;22.69;47.76
10732;BME280;5417;42.686;23.244;2023-05-29T11:35:29;94031.63;;;22.74;48.61
10732;BME280;5417;42.686;23.244;2023-05-29T11:37:57;94026.94;;;22.62;48.72
10732;BME280;5417;42.686;23.244;2023-05-29T11:40:28;94031.66;;;22.47;49.65
10732;BME280;5417;42.686;23.244;2023-05-29T11:43:05;94031.66;;;22.47;50.79
10732;BME280;5417;42.686;23.244;2023-05-29T11:45:35;94033.53;;;22.40;51.13
10732;BME280;5417;42.686;23.244;2023-05-29T11:48:03;94032.69;;;22.46;51.68
10732;BME280;5417;42.686;23.244;2023-05-29T11:50:35;94029.84;;;22.41;51.22
10732;BME280;5417;42.686;23.244;2023-05-29T11:53:09;94032.91;;;22.45;51.58
10732;BME280;5417;42.686;23.244;2023-05-29T11:55:43;94025.34;;;22.42;51.85
10732;BME280;5417;42.686;23.244;2023-05-29T11:58:10;94027.59;;;22.51;50.78
10732;BME280;5417;42.686;23.244;2023-05-29T12:00:40;94017.19;;;22.50;51.35
10732;BME280;5417;42.686;23.244;2023-05-29T12:03:08;94017.34;;;22.61;51.65
10732;BME280;5417;42.686;23.244;2023-05-29T12:05:44;94018.56;;;22.72;51.32
10732;BME280;5417;42.686;23.244;2023-05-29T12:08:11;94026.34;;;22.60;51.72
10732;BME280;5417;42.686;23.244;2023-05-29T12:10:46;94016.38;;;22.43;52.22
10732;BME280;5417;42.686;23.244;2023-05-29T12:13:13;94012.72;;;22.24;51.81
10732;BME280;5417;42.686;23.244;2023-05-29T12:15:44;94011.28;;;22.21;55.25
10732;BME280;5417;42.686;23.244;2023-05-29T12:18:12;94015.16;;;22.12;53.30
10732;BME280;5417;42.686;23.244;2023-05-29T12:20:43;94025.53;;;21.87;53.39
10732;BME280;5417;42.686;23.244;2023-05-29T12:23:30;94042.63;;;21.78;55.29
10732;BME280;5417;42.686;23.244;2023-05-29T12:25:58;94058.91;;;21.14;59.80
10732;BME280;5417;42.686;23.244;2023-05-29T12:28:30;94069.97;;;20.83;62.24
10732;BME280;5417;42.686;23.244;2023-05-29T12:31:02;94073.44;;;20.84;66.12
10732;BME280;5417;42.686;23.244;2023-05-29T12:33:29;94075.50;;;20.60;69.06
10732;BME280;5417;42.686;23.244;2023-05-29T12:36:11;94050.81;;;20.25;68.04
10732;BME280;5417;42.686;23.244;2023-05-29T12:38:50;94071.91;;;20.18;68.79
10732;BME280;5417;42.686;23.244;2023-05-29T12:41:27;94075.16;;;19.93;70.09
10732;BME280;5417;42.686;23.244;2023-05-29T12:43:55;94089.31;;;19.85;71.94
10732;BME280;5417;42.686;23.244;2023-05-29T12:46:23;94080.22;;;19.73;72.13
10732;BME280;5417;42.686;23.244;2023-05-29T12:48:52;94075.25;;;19.63;72.43
10732;BME280;5417;42.686;23.244;2023-05-29T12:51:24;94086.13;;;19.53;72.87
10732;BME280;5417;42.686;23.244;2023-05-29T12:53:51;94080.31;;;19.43;72.90
10732;BME280;5417;42.686;23.244;2023-05-29T12:56:25;94079.75;;;19.48;72.75
10732;BME280;5417;42.686;23.244;2023-05-29T12:58:59;94078.66;;;19.42;73.73
10732;BME280;5417;42.686;23.244;2023-05-29T13:01:26;94078.03;;;19.40;73.73
10732;BME280;5417;42.686;23.244;2023-05-29T13:03:53;94077.97;;;19.34;73.78
10732;BME280;5417;42.686;23.244;2023-05-29T13:06:20;94077.97;;;19.34;74.68
10732;BME280;5417;42.686;23.244;2023-05-29T13:08:50;94068.66;;;19.38;72.19
10732;BME280;5417;42.686;23.244;2023-05-29T13:11:17;94082.50;;;19.40;73.13
10732;BME280;5417;42.686;23.244;2023-05-29T13:13:44;94075.84;;;19.44;73.81
10732;BME280;5417;42.686;23.244;2023-05-29T13:18:52;94079.59;;;19.71;67.83
10732;BME280;5417;42.686;23.244;2023-05-29T13:21:19;94076.28;;;19.83;67.18
10732;BME280;5417;42.686;23.244;2023-05-29T13:24:04;94074.94;;;19.73;68.49
10732;BME280;5417;42.686;23.244;2023-05-29T13:26:31;94073.03;;;19.81;70.39
10732;BME280;5417;42.686;23.244;2023-05-29T13:29:05;94073.38;;;20.00;68.69
10732;BME280;5417;42.686;23.244;2023-05-29T13:31:33;94078.47;;;20.01;67.11
10732;BME280;5417;42.686;23.244;2023-05-29T13:34:00;94077.31;;;20.10;67.09
10732;BME280;5417;42.686;23.244;2023-05-29T13:36:27;94065.03;;;20.24;67.42
10732;BME280;5417;42.686;23.244;2023-05-29T13:38:56;94056.78;;;20.34;67.08
10732;BME280;5417;42.686;23.244;2023-05-29T13:41:30;94064.47;;;20.50;67.05
10732;BME280;5417;42.686;23.244;2023-05-29T13:44:01;94058.16;;;20.51;64.48
10732;BME280;5417;42.686;23.244;2023-05-29T13:46:32;94045.13;;;20.50;64.15
10732;BME280;5417;42.686;23.244;2023-05-29T13:49:00;94056.41;;;20.65;62.91
10732;BME280;5417;42.686;23.244;2023-05-29T13:51:27;94051.53;;;20.68;62.95
10732;BME280;5417;42.686;23.244;2023-05-29T13:53:54;94052.06;;;20.85;63.18
10732;BME280;5417;42.686;23.244;2023-05-29T13:56:28;94047.53;;;20.79;58.82
10732;BME280;5417;42.686;23.244;2023-05-29T13:58:58;94052.19;;;20.77;59.71
10732;BME280;5417;42.686;23.244;2023-05-29T14:01:40;94045.13;;;20.84;57.23
10732;BME280;5417;42.686;23.244;2023-05-29T14:04:09;94044.97;;;20.92;58.03
10732;BME280;5417;42.686;23.244;2023-05-29T14:06:40;94049.47;;;20.98;57.79
10732;BME280;5417;42.686;23.244;2023-05-29T14:09:07;94043.75;;;20.88;56.87
10732;BME280;5417;42.686;23.244;2023-05-29T14:11:55;94040.13;;;21.02;57.01
10732;BME280;5417;42.686;23.244;2023-05-29T14:14:53;94046.84;;;20.98;57.41
10732;BME280;5417;42.686;23.244;2023-05-29T14:17:29;94057.97;;;20.87;55.41
10732;BME280;5417;42.686;23.244;2023-05-29T14:19:57;94064.00;;;20.74;55.77
10732;BME280;5417;42.686;23.244;2023-05-29T14:22:26;94066.97;;;20.65;55.79
10732;BME280;5417;42.686;23.244;2023-05-29T14:24:58;94066.75;;;20.60;55.24
10732;BME280;5417;42.686;23.244;2023-05-29T14:27:26;94054.72;;;20.29;55.63
10732;BME280;5417;42.686;23.244;2023-05-29T14:29:53;94058.75;;;20.25;56.39
10732;BME280;5417;42.686;23.244;2023-05-29T14:32:20;94054.13;;;20.06;57.79
10732;BME280;5417;42.686;23.244;2023-05-29T14:34:47;94058.25;;;20.15;57.78
10732;BME280;5417;42.686;23.244;2023-05-29T14:37:16;94055.38;;;20.10;56.71
10732;BME280;5417;42.686;23.244;2023-05-29T14:39:43;94057.44;;;20.14;56.89
10732;BME280;5417;42.686;23.244;2023-05-29T14:42:14;94048.22;;;20.04;57.03
10732;BME280;5417;42.686;23.244;2023-05-29T14:44:47;94059.22;;;20.07;56.57
10732;BME280;5417;42.686;23.244;2023-05-29T14:47:14;94059.97;;;20.01;56.90
10732;BME280;5417;42.686;23.244;2023-05-29T14:49:41;94057.72;;;19.98;57.05
10732;BME280;5417;42.686;23.244;2023-05-29T14:52:08;94059.69;;;19.90;57.58
10732;BME280;5417;42.686;23.244;2023-05-29T14:54:39;94055.97;;;19.84;58.28
10732;BME280;5417;42.686;23.244;2023-05-29T14:57:25;94057.09;;;19.96;59.58
10732;BME280;5417;42.686;23.244;2023-05-29T15:00:05;94057.16;;;19.81;59.70
10732;BME280;5417;42.686;23.244;2023-05-29T15:02:37;94054.53;;;19.81;59.34
10732;BME280;5417;42.686;23.244;2023-05-29T15:05:05;94060.81;;;19.80;60.40
10732;BME280;5417;42.686;23.244;2023-05-29T15:07:32;94061.00;;;19.79;61.20
10732;BME280;5417;42.686;23.244;2023-05-29T15:10:06;94055.16;;;19.83;60.82
10732;BME280;5417;42.686;23.244;2023-05-29T15:12:43;94063.06;;;19.83;61.70
10732;BME280;5417;42.686;23.244;2023-05-29T15:15:10;94057.72;;;19.77;62.05
10732;BME280;5417;42.686;23.244;2023-05-29T15:20:23;94055.06;;;19.77;62.88
10732;BME280;5417;42.686;23.244;2023-05-29T15:22:53;94056.22;;;19.89;62.65
10732;BME280;5417;42.686;23.244;2023-05-29T15:25:26;94053.00;;;19.94;62.82
10732;BME280;5417;42.686;23.244;2023-05-29T15:28:06;94053.34;;;19.84;63.18